Time;durP1;ratioP1;P1;durP2;ratioP2;P2;SDS_P1;SDS_P2;PMS_P1;PMS_P2;Temp;Humidity;BMP_temperature;BMP_pressure;BME280_temperature;BME280_humidity;BME280_pressure;Samples;Min_cycle;Max_cycle;Signal;HPM_P1;HPM_P2
2022/12/13 00:00:32;;;;;;;35.05;14.50;;;;;;;-4.15;97.97;91734.66;5029641;28;20034;-77
2022/12/13 00:02:58;;;;;;;45.20;16.20;;;;;;;-4.14;97.64;91738.00;5032569;28;20382;-77
2022/12/13 00:05:23;;;;;;;43.50;16.17;;;;;;;-4.11;97.61;91740.16;5031552;28;20037;-77
2022/12/13 00:07:49;;;;;;;44.42;17.38;;;;;;;-4.04;98.82;91741.63;5031641;28;20029;-77
2022/12/13 00:10:14;;;;;;;47.80;16.75;;;;;;;-4.01;98.42;91740.41;5034549;28;20037;-77
2022/12/13 00:12:40;;;;;;;41.35;16.23;;;;;;;-3.99;98.75;91739.19;5036209;28;20391;-77
2022/12/13 00:15:06;;;;;;;52.05;17.98;;;;;;;-3.93;98.87;91739.34;5022011;28;20041;-77
2022/12/13 00:17:33;;;;;;;46.85;17.35;;;;;;;-3.89;98.31;91737.91;5038037;28;20048;-78
2022/12/13 00:19:59;;;;;;;47.90;16.80;;;;;;;-3.86;98.46;91743.34;5014895;28;20530;-77
2022/12/13 00:22:24;;;;;;;43.38;15.77;;;;;;;-3.85;97.48;91739.00;5034443;28;20128;-77
2022/12/13 00:24:54;;;;;;;44.05;16.42;;;;;;;-3.86;96.60;91740.03;5034389;28;20041;-77
2022/12/13 00:27:19;;;;;;;43.53;14.45;;;;;;;-3.82;95.36;91741.94;5034495;28;20100;-77
2022/12/13 00:29:45;;;;;;;34.88;14.45;;;;;;;-3.83;94.56;91737.03;5031884;28;20071;-77
2022/12/13 00:32:11;;;;;;;40.92;14.45;;;;;;;-3.80;93.15;91747.63;5034285;28;20433;-77
2022/12/13 00:34:36;;;;;;;37.28;14.02;;;;;;;-3.77;92.64;91736.16;5021589;28;20045;-77
2022/12/13 00:37:02;;;;;;;35.45;14.45;;;;;;;-3.72;91.23;91746.50;5013208;28;20038;-77
2022/12/13 00:39:28;;;;;;;40.00;14.32;;;;;;;-3.68;90.23;91750.19;5014745;28;20395;-77
2022/12/13 00:41:53;;;;;;;36.00;14.55;;;;;;;-3.63;90.02;91747.00;5032182;28;20117;-77
2022/12/13 00:44:19;;;;;;;37.95;14.55;;;;;;;-3.61;89.89;91745.78;5034026;28;20045;-78
2022/12/13 00:46:45;;;;;;;36.08;13.85;;;;;;;-3.57;89.26;91741.78;5034354;28;20079;-77
2022/12/13 00:49:12;;;;;;;37.50;14.30;;;;;;;-3.53;88.93;91731.91;5034092;28;20090;-77
2022/12/13 00:51:38;;;;;;;34.55;14.20;;;;;;;-3.53;89.07;91729.34;5033767;28;20116;-77
2022/12/13 00:54:04;;;;;;;37.83;14.70;;;;;;;-3.50;88.35;91740.91;5034205;28;20053;-77
2022/12/13 00:56:32;;;;;;;41.42;15.23;;;;;;;-3.46;89.53;91744.59;5034138;28;20096;-77
2022/12/13 00:58:58;;;;;;;49.38;16.20;;;;;;;-3.52;90.34;91722.44;5034583;28;20045;-78
2022/12/13 01:01:30;;;;;;;41.90;14.98;;;;;;;-3.47;90.21;91735.34;5032423;28;20502;-77
2022/12/13 01:03:58;;;;;;;46.10;16.88;;;;;;;-3.28;95.97;91731.72;5031454;28;20523;-77
2022/12/13 01:06:27;;;;;;;50.28;18.65;;;;;;;-3.32;98.44;91733.16;5014391;28;20033;-78
2022/12/13 01:08:53;;;;;;;54.70;19.10;;;;;;;-3.35;100.00;91733.63;5014559;28;20038;-77
2022/12/13 01:11:18;;;;;;;53.67;18.73;;;;;;;-3.44;100.00;91725.47;5016089;28;20124;-77
2022/12/13 01:13:45;;;;;;;49.25;18.33;;;;;;;-3.45;100.00;91723.91;5009641;28;20048;-78
2022/12/13 01:16:12;;;;;;;48.08;18.05;;;;;;;-3.49;100.00;91724.56;5012743;28;20468;-78
2022/12/13 01:18:39;;;;;;;59.60;18.08;;;;;;;-3.52;100.00;91725.00;5014243;28;20061;-77
2022/12/13 01:21:09;;;;;;;47.58;19.90;;;;;;;-3.56;100.00;91722.09;5014788;28;20044;-78
2022/12/13 01:23:34;;;;;;;51.67;18.83;;;;;;;-3.57;100.00;91716.19;5029674;28;20033;-77
2022/12/13 01:26:05;;;;;;;46.58;17.67;;;;;;;-3.58;100.00;91717.22;5033766;28;20037;-77
2022/12/13 01:28:31;;;;;;;52.42;19.38;;;;;;;-3.57;100.00;91716.19;5032468;28;20509;-78
2022/12/13 01:31:00;;;;;;;44.80;17.88;;;;;;;-3.53;100.00;91713.19;5034526;28;20112;-78
2022/12/13 01:33:26;;;;;;;53.72;20.02;;;;;;;-3.57;100.00;91717.97;5031430;28;20045;-77
2022/12/13 01:35:51;;;;;;;47.00;17.70;;;;;;;-3.58;100.00;91712.09;5032541;28;20045;-77
2022/12/13 01:38:17;;;;;;;54.72;17.88;;;;;;;-3.54;100.00;91706.53;5031828;28;20056;-77
2022/12/13 01:40:49;;;;;;;41.45;15.57;;;;;;;-3.53;100.00;91700.41;5033581;28;20079;-78
2022/12/13 01:43:16;;;;;;;50.28;17.40;;;;;;;-3.54;100.00;91709.09;5032662;28;20398;-78
2022/12/13 01:45:42;;;;;;;51.72;17.98;;;;;;;-3.53;100.00;91680.72;5032109;28;20029;-78
2022/12/13 01:48:13;;;;;;;45.30;17.17;;;;;;;-3.13;100.00;91713.38;5032787;28;20037;-78
2022/12/13 01:50:46;;;;;;;53.20;18.55;;;;;;;-3.35;100.00;91702.91;5032200;28;20049;-78
2022/12/13 01:53:21;;;;;;;51.60;18.60;;;;;;;-3.39;100.00;91712.00;5031545;28;20029;-76
2022/12/13 01:55:52;;;;;;;49.60;18.77;;;;;;;-3.48;100.00;91700.53;5044446;28;20411;-78
2022/12/13 01:58:19;;;;;;;51.15;19.00;;;;;;;-3.51;100.00;91706.06;5013921;28;20679;-78
2022/12/13 02:00:46;;;;;;;48.85;17.98;;;;;;;-3.54;100.00;91699.63;5015338;28;20053;-78
2022/12/13 02:03:14;;;;;;;49.88;19.27;;;;;;;-3.50;100.00;91707.66;5049254;28;20043;-78
2022/12/13 02:05:46;;;;;;;51.38;19.20;;;;;;;-3.35;100.00;91701.13;5028335;28;20033;-78
2022/12/13 02:08:15;;;;;;;48.13;18.23;;;;;;;-3.37;100.00;91707.47;5015235;28;20041;-78
2022/12/13 02:10:42;;;;;;;47.53;17.63;;;;;;;-3.44;100.00;91699.09;5015565;28;20061;-79
2022/12/13 02:13:08;;;;;;;48.55;18.40;;;;;;;-3.49;100.00;91702.31;5025242;28;20060;-78
2022/12/13 02:16:14;;;;;;;49.08;18.17;;;;;;;-3.52;100.00;91707.88;5033488;28;20046;-78
2022/12/13 02:19:11;;;;;;;47.03;17.25;;;;;;;-3.50;100.00;91699.97;4973377;28;20140;-78
2022/12/13 02:21:42;;;;;;;47.97;18.15;;;;;;;-3.35;100.00;91702.91;5034492;28;20077;-78
2022/12/13 02:24:49;;;;;;;53.05;19.45;;;;;;;-3.41;100.00;91702.00;5034390;28;20033;-78
2022/12/13 02:27:33;;;;;;;44.92;16.40;;;;;;;-3.29;100.00;91706.34;5034812;28;20046;-78
2022/12/13 02:30:26;;;;;;;49.17;18.30;;;;;;;-3.34;100.00;91704.44;5033487;28;20037;-78
2022/12/13 02:33:10;;;;;;;50.30;19.15;;;;;;;-3.28;100.00;91715.59;5033276;28;20435;-78
2022/12/13 02:35:54;;;;;;;48.97;18.55;;;;;;;-3.35;100.00;91700.34;5032387;28;20044;-78
2022/12/13 02:38:43;;;;;;;54.63;20.83;;;;;;;-3.36;100.00;91704.66;5033910;28;20037;-78
2022/12/13 02:41:21;;;;;;;52.90;19.55;;;;;;;-3.37;100.00;91707.47;5033346;28;20483;-78
2022/12/13 02:43:56;;;;;;;47.60;19.65;;;;;;;-3.38;100.00;91708.44;5035081;28;20025;-78
2022/12/13 02:46:25;;;;;;;46.05;18.08;;;;;;;-3.36;100.00;91706.44;5032623;28;20033;-78
2022/12/13 02:48:53;;;;;;;50.53;18.95;;;;;;;-3.32;100.00;91704.22;5034359;28;20033;-78
2022/12/13 02:51:21;;;;;;;57.10;20.67;;;;;;;-3.37;100.00;91689.53;5035121;28;20029;-77
2022/12/13 02:53:47;;;;;;;55.13;19.88;;;;;;;-3.35;100.00;91708.03;5015902;28;20025;-78
2022/12/13 02:56:13;;;;;;;58.25;19.60;;;;;;;-3.38;100.00;91705.88;5014674;28;20126;-78
2022/12/13 02:58:50;;;;;;;54.33;19.52;;;;;;;-3.40;100.00;91700.19;5034294;28;20033;-78
2022/12/13 03:01:37;;;;;;;51.33;19.17;;;;;;;-3.40;100.00;91701.00;5033728;28;20037;-78
2022/12/13 03:04:27;;;;;;;45.80;17.85;;;;;;;-3.42;100.00;91697.09;5034703;28;20021;-78
2022/12/13 03:07:08;;;;;;;44.05;17.17;;;;;;;-3.43;100.00;91698.09;5021863;28;20034;-78
2022/12/13 03:09:39;;;;;;;43.83;17.23;;;;;;;-3.42;100.00;91704.78;5046522;28;20398;-78
2022/12/13 03:15:46;;;;;;;41.50;15.05;;;;;;;-3.42;100.00;91703.00;5033249;28;20277;-78
2022/12/13 03:18:21;;;;;;;36.40;14.10;;;;;;;-3.40;100.00;91697.63;5031824;28;20045;-78
2022/12/13 03:20:50;;;;;;;39.10;15.02;;;;;;;-3.39;100.00;91694.88;5033983;28;20037;-78
2022/12/13 03:23:18;;;;;;;40.90;15.93;;;;;;;-3.41;100.00;91693.53;5032864;28;20026;-78
2022/12/13 03:25:46;;;;;;;42.92;16.83;;;;;;;-3.41;100.00;91688.41;5031895;28;20072;-77
2022/12/13 03:28:12;;;;;;;37.05;15.70;;;;;;;-3.39;100.00;91691.53;5033030;28;20099;-78
2022/12/13 03:30:38;;;;;;;43.55;15.35;;;;;;;-3.38;100.00;91685.41;5032802;28;20430;-78
2022/12/13 03:33:04;;;;;;;41.55;14.40;;;;;;;-3.35;100.00;91687.53;5034009;28;20495;-78
2022/12/13 03:35:30;;;;;;;35.17;14.65;;;;;;;-3.33;100.00;91692.41;5033099;28;20107;-78
2022/12/13 03:37:55;;;;;;;39.05;13.85;;;;;;;-3.37;100.00;91684.44;5024594;28;20037;-78
2022/12/13 03:40:21;;;;;;;37.75;14.02;;;;;;;-3.32;100.00;91691.44;5033110;28;20503;-76
2022/12/13 03:42:47;;;;;;;35.03;13.45;;;;;;;-3.36;100.00;91685.97;5037548;28;20049;-77
2022/12/13 03:45:12;;;;;;;33.92;13.68;;;;;;;-3.35;100.00;91688.31;5042560;28;20063;-77
2022/12/13 03:47:38;;;;;;;34.25;13.98;;;;;;;-3.35;100.00;91677.31;5040879;28;20037;-78
2022/12/13 03:50:04;;;;;;;32.75;13.90;;;;;;;-3.37;100.00;91692.09;5035283;28;20043;-77
2022/12/13 03:52:30;;;;;;;34.45;13.60;;;;;;;-3.40;100.00;91688.22;5036384;28;20052;-77
2022/12/13 03:54:56;;;;;;;42.38;13.88;;;;;;;-3.40;100.00;91690.75;5034484;28;20045;-78
2022/12/13 03:57:21;;;;;;;33.83;13.50;;;;;;;-3.40;100.00;91687.41;5034140;28;20091;-77
2022/12/13 03:59:47;;;;;;;29.77;12.90;;;;;;;-3.38;100.00;91682.84;5033586;28;20045;-76
2022/12/13 04:02:13;;;;;;;29.63;12.40;;;;;;;-3.40;100.00;91684.84;5032269;28;20030;-77
2022/12/13 04:04:38;;;;;;;28.98;11.80;;;;;;;-3.39;100.00;91681.31;5052449;28;20410;-77
2022/12/13 04:07:04;;;;;;;37.47;13.85;;;;;;;-3.40;100.00;91677.97;5049061;28;20061;-77
2022/12/13 04:09:29;;;;;;;36.78;14.25;;;;;;;-3.41;100.00;91668.72;5035256;28;20497;-77
2022/12/13 04:14:39;;;;;;;20.83;8.98;;;;;;;-3.40;100.00;91656.69;5033804;28;20058;-76
2022/12/13 04:17:06;;;;;;;16.55;7.80;;;;;;;-3.38;100.00;91650.38;5034092;28;20406;-77
2022/12/13 04:19:31;;;;;;;18.73;7.53;;;;;;;-3.36;100.00;91660.38;5035053;28;20462;-77
2022/12/13 04:21:57;;;;;;;18.20;7.15;;;;;;;-3.35;100.00;91656.84;5034002;28;20120;-77
2022/12/13 04:24:24;;;;;;;18.75;8.18;;;;;;;-3.37;100.00;91656.28;5034836;28;20391;-77
2022/12/13 04:26:49;;;;;;;14.68;5.97;;;;;;;-3.39;100.00;91655.72;5035061;28;20564;-77
2022/12/13 04:29:15;;;;;;;13.93;6.72;;;;;;;-3.33;100.00;91662.50;5033768;28;20064;-76
2022/12/13 04:31:40;;;;;;;13.20;6.00;;;;;;;-3.29;100.00;91660.28;5034511;28;20104;-77
2022/12/13 04:34:06;;;;;;;11.75;5.30;;;;;;;-3.35;100.00;91656.84;5034049;28;20119;-77
2022/12/13 04:36:32;;;;;;;13.27;5.40;;;;;;;-3.33;100.00;91659.94;5034337;28;20037;-77
2022/12/13 04:38:58;;;;;;;13.43;5.57;;;;;;;-3.29;100.00;91661.03;5032588;28;20322;-77
2022/12/13 04:41:24;;;;;;;15.30;5.43;;;;;;;-3.30;100.00;91659.50;5034707;28;20037;-77
2022/12/13 04:43:52;;;;;;;14.32;5.93;;;;;;;-3.27;98.85;91663.38;5034031;28;20048;-77
2022/12/13 04:46:19;;;;;;;12.00;5.43;;;;;;;-3.29;98.61;91661.03;5033607;28;20109;-77
2022/12/13 04:48:45;;;;;;;17.10;6.55;;;;;;;-3.30;99.18;91656.94;5035201;28;20037;-77
2022/12/13 04:51:11;;;;;;;12.75;5.75;;;;;;;-3.33;100.00;91656.59;5033899;28;20045;-77
2022/12/13 04:53:36;;;;;;;13.30;6.22;;;;;;;-3.35;100.00;91659.38;5036610;28;20109;-77
2022/12/13 04:56:03;;;;;;;15.40;6.47;;;;;;;-3.30;99.35;91656.94;5042312;28;20101;-77
2022/12/13 04:58:29;;;;;;;15.90;5.78;;;;;;;-3.38;98.67;91655.50;5038878;28;20075;-77
2022/12/13 05:00:55;;;;;;;13.50;6.10;;;;;;;-3.35;100.00;91664.50;5035516;28;20499;-77
2022/12/13 05:03:21;;;;;;;17.65;6.00;;;;;;;-3.37;100.00;91658.84;5014706;28;20055;-76
2022/12/13 05:05:47;;;;;;;11.90;4.97;;;;;;;-3.29;99.71;91666.16;5034365;28;20049;-77
2022/12/13 05:08:12;;;;;;;14.55;5.88;;;;;;;-3.23;96.87;91659.38;5031673;28;20061;-77
2022/12/13 05:10:38;;;;;;;12.85;6.97;;;;;;;-3.28;98.15;91662.63;5031546;28;20037;-77
2022/12/13 05:13:04;;;;;;;14.25;6.15;;;;;;;-3.35;99.60;91662.72;5032076;28;20041;-77
2022/12/13 05:15:30;;;;;;;15.75;6.40;;;;;;;-3.38;100.00;91657.25;5028485;28;20483;-78
2022/12/13 05:18:04;;;;;;;15.98;6.68;;;;;;;-3.48;100.00;91655.25;5035091;28;20125;-77
2022/12/13 05:20:29;;;;;;;15.25;6.10;;;;;;;-3.28;100.00;91657.50;5033765;28;20162;-77
2022/12/13 05:22:56;;;;;;;17.30;7.57;;;;;;;-3.35;100.00;91656.84;5035608;28;20038;-77
2022/12/13 05:25:24;;;;;;;20.33;7.43;;;;;;;-3.42;100.00;91646.69;5031643;28;20036;-78
2022/12/13 05:27:50;;;;;;;13.70;6.68;;;;;;;-3.45;100.00;91651.47;5041739;28;20048;-79
2022/12/13 05:30:16;;;;;;;15.30;6.47;;;;;;;-3.46;100.00;91645.56;5035625;28;20475;-78
2022/12/13 05:32:42;;;;;;;13.07;5.97;;;;;;;-3.52;100.00;91638.00;5031572;28;20451;-78
2022/12/13 05:35:08;;;;;;;16.30;6.97;;;;;;;-3.45;100.00;91651.47;5033120;28;20048;-79
2022/12/13 05:37:34;;;;;;;17.05;5.95;;;;;;;-3.45;100.00;91643.78;5034491;28;20033;-78
2022/12/13 05:39:59;;;;;;;13.27;5.65;;;;;;;-3.44;100.00;91653.03;5032160;28;20049;-78
2022/12/13 05:42:25;;;;;;;14.77;5.80;;;;;;;-3.45;100.00;91654.03;5030277;28;20033;-78
2022/12/13 05:44:52;;;;;;;13.02;5.63;;;;;;;-3.45;100.00;91647.13;5030578;28;20044;-78
2022/12/13 05:47:17;;;;;;;14.38;6.07;;;;;;;-3.43;100.00;91649.47;5032016;28;20042;-77
2022/12/13 05:49:43;;;;;;;14.18;6.13;;;;;;;-3.41;100.00;91644.91;5034627;28;20041;-78
2022/12/13 05:52:20;;;;;;;14.95;6.30;;;;;;;-3.43;100.00;91652.81;5026209;28;20123;-78
2022/12/13 05:54:46;;;;;;;17.77;6.78;;;;;;;-3.43;100.00;91645.13;5046999;28;20056;-79
2022/12/13 05:57:12;;;;;;;15.68;7.10;;;;;;;-3.43;100.00;91646.91;5034700;28;20029;-79
2022/12/13 05:59:38;;;;;;;16.75;7.15;;;;;;;-3.43;100.00;91646.91;5035166;28;20042;-78
2022/12/13 06:02:04;;;;;;;19.17;6.85;;;;;;;-3.43;100.00;91640.00;5017900;28;20037;-79
2022/12/13 06:04:29;;;;;;;20.00;6.97;;;;;;;-3.40;100.00;91643.91;5031548;28;20057;-79
2022/12/13 06:06:55;;;;;;;14.20;6.35;;;;;;;-3.49;100.00;91640.13;5021129;28;20077;-78
2022/12/13 06:09:21;;;;;;;17.75;6.15;;;;;;;-3.46;100.00;91649.94;5032601;28;20045;-78
2022/12/13 06:11:48;;;;;;;14.93;6.47;;;;;;;-3.49;100.00;91646.03;5033297;28;20030;-79
2022/12/13 06:14:14;;;;;;;15.77;6.63;;;;;;;-3.50;100.00;91646.25;5030522;28;20041;-79
2022/12/13 06:16:40;;;;;;;19.02;7.60;;;;;;;-3.53;100.00;91642.34;5032861;28;20541;-79
2022/12/13 06:19:05;;;;;;;16.77;7.15;;;;;;;-3.52;100.00;91646.44;5031257;28;20065;-79
2022/12/13 06:21:32;;;;;;;16.00;7.13;;;;;;;-3.54;100.00;91638.22;5034226;28;20021;-78
2022/12/13 06:23:58;;;;;;;22.50;8.23;;;;;;;-3.54;100.00;91645.13;5029297;28;20049;-77
2022/12/13 06:26:24;;;;;;;19.55;7.78;;;;;;;-3.57;100.00;91647.13;5033785;28;20033;-77
2022/12/13 06:28:58;;;;;;;16.70;7.07;;;;;;;-3.61;100.00;91651.13;5059877;28;20399;-77
2022/12/13 06:31:24;;;;;;;15.75;7.20;;;;;;;-3.62;100.00;91647.00;5044446;28;20030;-77
2022/12/13 06:33:50;;;;;;;20.30;7.90;;;;;;;-3.62;100.00;91654.69;5039665;28;20475;-77
2022/12/13 06:36:16;;;;;;;15.55;6.65;;;;;;;-3.66;100.00;91651.00;5040214;28;20068;-76
2022/12/13 06:38:41;;;;;;;18.98;7.35;;;;;;;-3.68;100.00;91652.22;5044653;28;20410;-77
2022/12/13 06:41:10;;;;;;;14.73;5.90;;;;;;;-3.69;100.00;91646.34;5046565;28;20045;-77
2022/12/13 06:43:35;;;;;;;15.68;6.70;;;;;;;-3.66;100.00;91650.22;5047603;28;20402;-77
2022/12/13 06:46:03;;;;;;;14.70;6.60;;;;;;;-3.67;100.00;91649.47;5046489;28;20036;-77
2022/12/13 06:48:29;;;;;;;18.30;6.90;;;;;;;-3.70;100.00;91644.75;5046100;28;20033;-77
2022/12/13 06:50:58;;;;;;;17.90;6.97;;;;;;;-3.73;100.00;91645.22;5029635;28;20580;-77
2022/12/13 06:53:24;;;;;;;14.73;6.82;;;;;;;-3.74;100.00;91651.31;5029797;28;20033;-77
2022/12/13 06:55:50;;;;;;;14.60;6.40;;;;;;;-3.74;100.00;91656.44;5012980;28;20052;-77
2022/12/13 06:58:15;;;;;;;13.82;6.45;;;;;;;-3.73;100.00;91654.66;5047226;28;20048;-77
2022/12/13 07:00:41;;;;;;;16.33;6.78;;;;;;;-3.74;100.00;91658.22;5040497;28;20471;-77
2022/12/13 07:03:07;;;;;;;28.00;10.20;;;;;;;-3.77;100.00;91654.31;5009727;28;20107;-77
2022/12/13 07:05:33;;;;;;;29.08;11.23;;;;;;;-3.71;100.00;91665.47;5026037;28;20068;-77
2022/12/13 07:07:59;;;;;;;26.00;9.75;;;;;;;-3.69;100.00;91660.88;5025948;28;20030;-77
2022/12/13 07:10:25;;;;;;;25.23;9.13;;;;;;;-3.64;100.00;91666.91;5026276;28;20100;-77
2022/12/13 07:12:51;;;;;;;20.88;7.32;;;;;;;-3.60;100.00;91672.38;5026220;28;20498;-77
2022/12/13 07:15:16;;;;;;;17.85;7.10;;;;;;;-3.55;100.00;91667.38;5026156;28;20035;-77
2022/12/13 07:17:42;;;;;;;17.90;7.97;;;;;;;-3.45;100.00;91664.25;5026956;28;20041;-77
2022/12/13 07:20:08;;;;;;;24.20;10.82;;;;;;;-3.42;100.00;91666.41;5027203;28;20052;-77
2022/12/13 07:22:35;;;;;;;20.40;8.93;;;;;;;-3.36;100.00;91671.38;5026660;28;20049;-77
2022/12/13 07:25:03;;;;;;;18.58;7.80;;;;;;;-3.32;100.00;91666.63;5026056;28;20034;-77
2022/12/13 07:27:29;;;;;;;19.33;8.10;;;;;;;-3.28;100.00;91677.19;5026827;28;20054;-77
2022/12/13 07:29:56;;;;;;;15.98;7.35;;;;;;;-3.21;99.28;91688.88;5026989;28;20388;-77
2022/12/13 07:32:22;;;;;;;15.50;6.45;;;;;;;-3.16;99.39;91686.44;5025896;28;20044;-77
2022/12/13 07:34:47;;;;;;;11.63;5.28;;;;;;;-3.11;100.00;91680.63;5026755;28;20046;-77
2022/12/13 07:37:13;;;;;;;12.88;6.13;;;;;;;-3.04;99.59;91683.88;5027086;28;20487;-77
2022/12/13 07:39:38;;;;;;;14.25;5.97;;;;;;;-2.97;99.31;91681.22;5018147;28;20052;-76
2022/12/13 07:42:04;;;;;;;11.65;5.72;;;;;;;-2.92;98.69;91685.66;5012375;28;20045;-77
2022/12/13 07:44:31;;;;;;;14.43;6.07;;;;;;;-2.84;98.18;91682.75;5012695;28;20070;-77
2022/12/13 07:46:56;;;;;;;13.60;5.82;;;;;;;-2.81;98.28;91677.19;5013830;28;20130;-77
2022/12/13 07:49:22;;;;;;;15.18;5.70;;;;;;;-2.76;98.43;91680.63;5013533;28;20087;-77
2022/12/13 07:51:47;;;;;;;15.43;5.78;;;;;;;-2.72;98.31;91675.84;5013608;28;20113;-77
2022/12/13 07:54:13;;;;;;;12.45;5.82;;;;;;;-2.64;98.64;91683.16;5013710;28;20442;-77
2022/12/13 07:56:39;;;;;;;15.30;5.55;;;;;;;-2.57;98.42;91683.03;5013544;28;20038;-77
2022/12/13 07:59:04;;;;;;;12.38;5.05;;;;;;;-2.56;97.90;91684.63;5013743;28;20040;-77
2022/12/13 08:01:33;;;;;;;16.65;7.78;;;;;;;-2.53;96.91;91684.16;5013312;28;20042;-77
2022/12/13 08:04:00;;;;;;;18.42;9.10;;;;;;;-2.48;95.45;91691.94;4997097;28;20043;-77
2022/12/13 08:06:28;;;;;;;15.85;7.28;;;;;;;-2.47;95.83;91683.25;5030172;28;20125;-77
2022/12/13 08:08:55;;;;;;;15.40;6.57;;;;;;;-2.47;93.12;91692.75;5029829;28;20175;-77
2022/12/13 08:11:21;;;;;;;19.73;7.32;;;;;;;-2.53;95.39;91694.41;5032021;28;20045;-77
2022/12/13 08:13:47;;;;;;;16.20;6.78;;;;;;;-2.58;96.83;91679.72;5031824;28;20522;-77
2022/12/13 08:16:17;;;;;;;15.07;6.80;;;;;;;-2.60;97.35;91689.41;5032048;28;20167;-77
2022/12/13 08:18:48;;;;;;;22.65;7.65;;;;;;;-2.53;95.28;91691.84;5033391;28;20033;-77
2022/12/13 08:21:14;;;;;;;17.67;7.38;;;;;;;-2.53;95.51;91691.84;5034028;28;20359;-77
2022/12/13 08:23:40;;;;;;;17.05;7.78;;;;;;;-2.46;94.59;91687.38;5032102;28;20033;-77
2022/12/13 08:26:05;;;;;;;16.02;8.07;;;;;;;-2.37;95.99;91695.50;5032911;28;20124;-77
2022/12/13 08:28:33;;;;;;;18.65;8.20;;;;;;;-2.38;95.71;91697.28;5031062;28;20617;-77
2022/12/13 08:31:10;;;;;;;15.73;6.60;;;;;;;-2.36;94.74;91697.06;5031293;28;20064;-77
2022/12/13 08:33:38;;;;;;;18.02;6.15;;;;;;;-2.37;94.20;91693.69;5032481;28;20050;-76
2022/12/13 08:36:08;;;;;;;16.25;6.97;;;;;;;-2.35;94.22;91701.94;5032495;28;20037;-77
2022/12/13 08:38:34;;;;;;;21.08;6.85;;;;;;;-2.35;93.31;91689.13;5031269;28;20120;-77
2022/12/13 08:41:00;;;;;;;13.35;6.75;;;;;;;-2.35;92.85;91696.81;5030339;28;20112;-77
2022/12/13 08:43:25;;;;;;;15.35;6.65;;;;;;;-2.37;92.56;91693.69;5032276;28;20502;-77
2022/12/13 08:45:51;;;;;;;19.20;8.77;;;;;;;-2.31;93.16;91708.19;5032212;28;20407;-76
2022/12/13 08:48:17;;;;;;;17.80;7.25;;;;;;;-2.37;90.87;91709.09;5030931;28;20522;-77
2022/12/13 08:50:42;;;;;;;19.85;8.90;;;;;;;-2.40;91.13;91716.47;5031386;28;20048;-77
2022/12/13 08:53:08;;;;;;;16.38;7.40;;;;;;;-2.32;91.44;91727.16;5032362;28;20041;-77
2022/12/13 08:55:33;;;;;;;19.88;7.60;;;;;;;-2.37;92.53;91723.69;5031135;28;20037;-77
2022/12/13 08:58:05;;;;;;;16.60;7.55;;;;;;;-2.39;93.68;91728.25;5032114;28;20391;-77
2022/12/13 09:00:31;;;;;;;20.50;7.57;;;;;;;-2.37;93.43;91732.16;5032638;28;20250;-77
2022/12/13 09:02:56;;;;;;;18.20;7.55;;;;;;;-2.36;93.65;91731.16;5032032;28;20037;-77
2022/12/13 09:05:22;;;;;;;18.23;7.95;;;;;;;-2.37;93.36;91728.81;5032014;28;20107;-77
2022/12/13 09:07:47;;;;;;;20.45;7.95;;;;;;;-2.35;94.50;91729.38;5031743;28;20125;-77
2022/12/13 09:10:14;;;;;;;14.10;6.65;;;;;;;-2.30;93.76;91737.16;5031036;28;20061;-77
2022/12/13 09:12:41;;;;;;;16.70;7.13;;;;;;;-2.39;88.59;91731.59;5031278;28;20037;-76
2022/12/13 09:15:08;;;;;;;18.45;6.75;;;;;;;-2.35;88.03;91737.84;5031788;28;20030;-77
2022/12/13 09:17:33;;;;;;;15.73;6.47;;;;;;;-2.29;88.49;91740.53;5031506;28;20511;-77
2022/12/13 09:19:59;;;;;;;16.05;7.03;;;;;;;-2.17;88.77;91734.34;5031871;28;20120;-76
2022/12/13 09:22:25;;;;;;;20.00;7.10;;;;;;;-2.02;88.64;91739.00;5030484;28;20064;-77
2022/12/13 09:24:50;;;;;;;15.32;6.47;;;;;;;-1.66;87.78;91739.66;5031577;28;20140;-77
2022/12/13 09:27:16;;;;;;;18.73;7.03;;;;;;;-1.42;88.37;91736.97;5031337;28;20064;-77
2022/12/13 09:29:41;;;;;;;14.43;6.22;;;;;;;-1.24;88.58;91736.75;5031765;28;20033;-77
2022/12/13 09:32:07;;;;;;;16.10;6.53;;;;;;;-1.13;87.00;91735.13;5031375;28;20179;-77
2022/12/13 09:34:32;;;;;;;17.98;7.13;;;;;;;-1.09;85.92;91739.56;5031480;28;20025;-77
2022/12/13 09:36:58;;;;;;;14.07;6.80;;;;;;;-0.98;86.24;91742.31;5031491;28;20041;-77
2022/12/13 09:39:23;;;;;;;15.80;7.25;;;;;;;-0.87;85.94;91744.03;5030962;28;20029;-77
2022/12/13 09:41:56;;;;;;;13.13;6.60;;;;;;;-0.79;84.61;91738.47;5029825;28;20565;-77
2022/12/13 09:44:29;;;;;;;22.77;6.95;;;;;;;-0.55;80.41;91740.88;5031359;28;20059;-77
2022/12/13 09:46:59;;;;;;;12.48;5.80;;;;;;;-0.63;79.86;91729.22;5031032;28;20041;-77
2022/12/13 09:49:37;;;;;;;20.55;8.45;;;;;;;-0.65;79.72;91739.72;5029904;28;20060;-77
2022/12/13 09:52:05;;;;;;;20.67;7.88;;;;;;;-0.70;79.61;91733.72;5031092;28;20651;-77
2022/12/13 09:54:30;;;;;;;16.27;7.38;;;;;;;-0.90;81.15;91726.47;5031087;28;20032;-77
2022/12/13 09:56:56;;;;;;;15.00;6.22;;;;;;;-0.72;81.31;91730.59;5029205;28;20499;-76
2022/12/13 09:59:27;;;;;;;20.50;8.10;;;;;;;-0.70;81.36;91726.81;5029661;28;20049;-76
2022/12/13 10:01:54;;;;;;;23.65;8.77;;;;;;;-0.81;82.72;91725.09;5029367;28;20506;-76
2022/12/13 10:04:20;;;;;;;19.60;8.07;;;;;;;-0.75;82.79;91726.72;5031016;28;20512;-76
2022/12/13 10:06:50;;;;;;;19.80;9.00;;;;;;;-0.80;85.26;91723.31;5026431;28;20124;-76
2022/12/13 10:09:17;;;;;;;23.83;9.88;;;;;;;-0.76;84.91;91727.75;5029744;28;20406;-76
2022/12/13 10:11:51;;;;;;;24.60;9.48;;;;;;;-0.68;84.64;91724.75;5030974;28;20059;-76
2022/12/13 10:14:27;;;;;;;22.90;9.07;;;;;;;-0.40;81.83;91720.50;5030889;28;20116;-77
2022/12/13 10:16:56;;;;;;;17.23;6.63;;;;;;;-0.42;82.46;91709.69;5030768;28;20033;-76
2022/12/13 10:19:26;;;;;;;24.35;9.70;;;;;;;-0.54;81.81;91709.78;5030883;28;20383;-76
2022/12/13 10:21:52;;;;;;;23.27;9.70;;;;;;;-0.48;83.81;91711.41;5026474;28;20161;-76
2022/12/13 10:24:19;;;;;;;25.63;8.45;;;;;;;-0.78;83.60;91711.78;5010119;28;20451;-76
2022/12/13 10:26:45;;;;;;;25.25;10.38;;;;;;;-0.80;84.96;91718.94;5011028;28;20044;-76
2022/12/13 10:29:11;;;;;;;23.10;8.73;;;;;;;-0.70;84.67;91713.16;5011037;28;20495;-76
2022/12/13 10:31:43;;;;;;;18.48;9.05;;;;;;;-0.65;83.83;91706.31;5010868;28;20042;-76
2022/12/13 10:34:28;;;;;;;;;;;;;;;-0.51;80.88;91714.44;5026661;28;20513;-76
2022/12/13 10:36:54;;;;;;;27.45;9.15;;;;;;;-0.72;82.71;91707.47;5010836;28;20020;-76
2022/12/13 10:39:40;;;;;;;19.92;8.43;;;;;;;-0.66;84.79;91716.81;5011175;28;20447;-77
2022/12/13 10:42:13;;;;;;;23.17;8.90;;;;;;;-0.65;87.40;91708.88;5011358;28;20046;-76
2022/12/13 10:44:39;;;;;;;23.08;8.90;;;;;;;-0.55;85.83;91715.16;5010272;28;20038;-76
2022/12/13 10:47:13;;;;;;;22.40;8.80;;;;;;;-0.55;85.82;91705.66;5028746;28;20061;-76
2022/12/13 10:49:50;;;;;;;19.30;8.32;;;;;;;-0.50;85.37;91702.38;5029269;28;20549;-76
2022/12/13 10:52:36;;;;;;;20.30;8.10;;;;;;;-0.45;84.47;91692.94;5029003;28;20044;-78
2022/12/13 10:55:36;;;;;;;19.10;8.90;;;;;;;-0.42;84.07;91699.41;5003093;28;20411;-77
2022/12/13 10:58:06;;;;;;;23.00;9.20;;;;;;;-0.37;84.21;91698.69;5014226;28;20104;-78
2022/12/13 11:00:40;;;;;;;21.23;8.43;;;;;;;-0.39;84.95;91696.34;5013745;28;20053;-78
2022/12/13 11:03:09;;;;;;;20.13;8.52;;;;;;;-0.38;82.91;91694.53;5014153;28;20053;-78
2022/12/13 11:05:36;;;;;;;20.77;8.75;;;;;;;-0.30;82.50;91686.41;5020555;28;20071;-78
2022/12/13 11:08:21;;;;;;;19.83;7.60;;;;;;;-0.31;80.75;91690.78;5014450;28;20553;-78
2022/12/13 11:10:56;;;;;;;22.25;9.05;;;;;;;-0.24;81.89;91696.53;5015588;28;20034;-77
2022/12/13 11:13:35;;;;;;;23.67;10.55;;;;;;;-0.24;82.66;91693.97;5028018;28;20037;-77
2022/12/13 11:16:03;;;;;;;20.88;9.70;;;;;;;-0.26;82.92;91692.66;5025965;28;20048;-77
2022/12/13 11:18:36;;;;;;;21.67;8.57;;;;;;;-0.17;81.76;91683.50;5028974;28;20091;-76
2022/12/13 11:21:06;;;;;;;23.73;9.75;;;;;;;-0.25;80.33;91691.63;5026819;28;20037;-77
2022/12/13 11:23:45;;;;;;;18.42;9.00;;;;;;;-0.33;81.79;91684.34;5022265;28;20030;-76
2022/12/13 11:26:17;;;;;;;18.88;7.38;;;;;;;-0.22;81.88;91686.78;5003411;28;20041;-76
2022/12/13 11:29:01;;;;;;;22.92;9.57;;;;;;;-0.35;82.84;91687.13;5016125;28;20037;-77
2022/12/13 11:31:47;;;;;;;14.73;6.72;;;;;;;-0.37;79.81;91686.59;5032261;28;20068;-77